DAL4033 KLAX-KMRY
Flight info
| Callsign | DAL4033 |
|---|---|
| Flight time | 0h 48m |
| Altitude | 32000 |
| Route | SUMMR2 SCTRR WIGGL |
| Aircraft | A320/M-SDE3FGHIRWY/LB1 |
Departure
| Time | 2026-04-22 00:23 |
|---|---|
| Airport | Los Angeles International Airport (KLAX) |
Arrival
| Time | 2026-04-22 01:12 |
|---|---|
| Airport | Monterey Regional Airport (KMRY) |
| Time | Latitude | Longitude | Altitude | Speed | Heading |
|---|---|---|---|---|---|
| 2026-04-21 23:55 | 33.94653 | -118.40479 | 95 ft | 0 kts | 96° |
| 2026-04-21 23:56 | 33.94654 | -118.40485 | 95 ft | 0 kts | 96° |
| 2026-04-22 00:11 | 33.94654 | -118.40488 | 95 ft | 2 kts | 96° |
| 2026-04-22 00:11 | 33.94657 | -118.40520 | 95 ft | 4 kts | 96° |
| 2026-04-22 00:11 | 33.94658 | -118.40547 | 95 ft | 4 kts | 71° |
| 2026-04-22 00:11 | 33.94644 | -118.40565 | 95 ft | 4 kts | 3° |
| 2026-04-22 00:12 | 33.94618 | -118.40563 | 94 ft | 4 kts | 356° |
| 2026-04-22 00:12 | 33.94623 | -118.40563 | 94 ft | 4 kts | 356° |
| 2026-04-22 00:12 | 33.94647 | -118.40566 | 95 ft | 1 kts | 354° |
| 2026-04-22 00:15 | 33.94651 | -118.40566 | 95 ft | 4 kts | 354° |
| 2026-04-22 00:16 | 33.94679 | -118.40570 | 95 ft | 6 kts | 353° |
| 2026-04-22 00:16 | 33.94717 | -118.40577 | 96 ft | 6 kts | 351° |
| 2026-04-22 00:16 | 33.94789 | -118.40591 | 98 ft | 9 kts | 351° |
| 2026-04-22 00:16 | 33.94839 | -118.40588 | 98 ft | 5 kts | 16° |
| 2026-04-22 00:17 | 33.94875 | -118.40515 | 100 ft | 11 kts | 82° |
| 2026-04-22 00:17 | 33.94880 | -118.40455 | 100 ft | 11 kts | 84° |
| 2026-04-22 00:17 | 33.94887 | -118.40367 | 100 ft | 12 kts | 84° |
| 2026-04-22 00:17 | 33.94895 | -118.40274 | 100 ft | 11 kts | 84° |
| 2026-04-22 00:18 | 33.94904 | -118.40189 | 100 ft | 10 kts | 81° |
| 2026-04-22 00:18 | 33.94913 | -118.40115 | 99 ft | 8 kts | 82° |
| 2026-04-22 00:18 | 33.94921 | -118.40049 | 101 ft | 7 kts | 82° |
| 2026-04-22 00:18 | 33.94928 | -118.39990 | 100 ft | 9 kts | 82° |
| 2026-04-22 00:19 | 33.94937 | -118.39945 | 100 ft | 2 kts | 68° |
| 2026-04-22 00:19 | 33.94946 | -118.39929 | 101 ft | 8 kts | 54° |
| 2026-04-22 00:19 | 33.95006 | -118.39912 | 108 ft | 5 kts | 346° |
| 2026-04-22 00:19 | 33.95033 | -118.39927 | 109 ft | 6 kts | 324° |
| 2026-04-22 00:20 | 33.95041 | -118.39967 | 109 ft | 0 kts | 265° |
| 2026-04-22 00:21 | 33.95041 | -118.39968 | 109 ft | 0 kts | 265° |
| 2026-04-22 00:22 | 33.95022 | -118.40150 | 109 ft | 58 kts | 264° |
| 2026-04-22 00:23 | 33.94950 | -118.40897 | 109 ft | 119 kts | 263° |
| 2026-04-22 00:23 | 33.94825 | -118.42076 | 252 ft | 154 kts | 262° |
| 2026-04-22 00:23 | 33.94681 | -118.43354 | 950 ft | 154 kts | 262° |
| 2026-04-22 00:23 | 33.94553 | -118.44627 | 1732 ft | 153 kts | 265° |
| 2026-04-22 00:24 | 33.94428 | -118.45943 | 2243 ft | 167 kts | 264° |
| 2026-04-22 00:24 | 33.94317 | -118.47440 | 2549 ft | 192 kts | 267° |
| 2026-04-22 00:24 | 33.94256 | -118.49140 | 2951 ft | 216 kts | 268° |
| 2026-04-22 00:24 | 33.94198 | -118.51045 | 3415 ft | 239 kts | 266° |
| 2026-04-22 00:25 | 33.94077 | -118.53082 | 4197 ft | 247 kts | 264° |
| 2026-04-22 00:25 | 33.93919 | -118.55172 | 4792 ft | 253 kts | 263° |
| 2026-04-22 00:25 | 33.93748 | -118.57280 | 4959 ft | 253 kts | 263° |
| 2026-04-22 00:25 | 33.93576 | -118.59381 | 5004 ft | 252 kts | 263° |
| 2026-04-22 00:26 | 33.93404 | -118.61473 | 5008 ft | 251 kts | 263° |
| 2026-04-22 00:26 | 33.93232 | -118.63594 | 5322 ft | 259 kts | 263° |
| 2026-04-22 00:26 | 33.93063 | -118.65739 | 6389 ft | 257 kts | 262° |
| 2026-04-22 00:26 | 33.92896 | -118.67890 | 7307 ft | 260 kts | 263° |
| 2026-04-22 00:27 | 33.92728 | -118.70063 | 8253 ft | 261 kts | 263° |
| 2026-04-22 00:27 | 33.92557 | -118.72240 | 9216 ft | 262 kts | 262° |
| 2026-04-22 00:27 | 33.92385 | -118.74424 | 10152 ft | 263 kts | 262° |
| 2026-04-22 00:27 | 33.92201 | -118.76714 | 10489 ft | 286 kts | 262° |
| 2026-04-22 00:28 | 33.92004 | -118.79155 | 11039 ft | 297 kts | 262° |
| 2026-04-22 00:28 | 33.91808 | -118.81648 | 11815 ft | 301 kts | 262° |
| 2026-04-22 00:28 | 33.91708 | -118.84170 | 12633 ft | 305 kts | 269° |
| 2026-04-22 00:28 | 33.91795 | -118.86727 | 13474 ft | 306 kts | 269° |
| 2026-04-22 00:29 | 33.91878 | -118.89298 | 14256 ft | 308 kts | 269° |
| 2026-04-22 00:29 | 33.91955 | -118.91880 | 14985 ft | 309 kts | 269° |
| 2026-04-22 00:29 | 33.92030 | -118.94474 | 15715 ft | 311 kts | 269° |
| 2026-04-22 00:29 | 33.92105 | -118.97080 | 16444 ft | 312 kts | 269° |
| 2026-04-22 00:30 | 33.92224 | -118.99697 | 17156 ft | 316 kts | 274° |
| 2026-04-22 00:30 | 33.92751 | -119.02253 | 17847 ft | 324 kts | 285° |
| 2026-04-22 00:30 | 33.93793 | -119.04695 | 18534 ft | 333 kts | 295° |
| 2026-04-22 00:30 | 33.95023 | -119.07062 | 19148 ft | 334 kts | 295° |
| 2026-04-22 00:31 | 33.96258 | -119.09445 | 19751 ft | 336 kts | 295° |
| 2026-04-22 00:31 | 33.97496 | -119.11844 | 20351 ft | 338 kts | 295° |
| 2026-04-22 00:31 | 33.98740 | -119.14261 | 20948 ft | 340 kts | 295° |
| 2026-04-22 00:31 | 34.00003 | -119.16688 | 21539 ft | 344 kts | 297° |
| 2026-04-22 00:32 | 34.01557 | -119.18928 | 22117 ft | 357 kts | 308° |
| 2026-04-22 00:32 | 34.03538 | -119.20837 | 22737 ft | 368 kts | 315° |
| 2026-04-22 00:32 | 34.05634 | -119.22624 | 23325 ft | 370 kts | 315° |
| 2026-04-22 00:32 | 34.07738 | -119.24425 | 23855 ft | 373 kts | 315° |
| 2026-04-22 00:33 | 34.09854 | -119.26243 | 24322 ft | 374 kts | 315° |
| 2026-04-22 00:33 | 34.11979 | -119.28074 | 24790 ft | 376 kts | 315° |
| 2026-04-22 00:33 | 34.14115 | -119.29917 | 25236 ft | 379 kts | 315° |
| 2026-04-22 00:33 | 34.16267 | -119.31769 | 25662 ft | 381 kts | 315° |
| 2026-04-22 00:34 | 34.18432 | -119.33633 | 26078 ft | 383 kts | 315° |
| 2026-04-22 00:34 | 34.20609 | -119.35511 | 26490 ft | 386 kts | 315° |
| 2026-04-22 00:34 | 34.22800 | -119.37399 | 26933 ft | 388 kts | 314° |
| 2026-04-22 00:34 | 34.25003 | -119.39301 | 27339 ft | 390 kts | 314° |
| 2026-04-22 00:35 | 34.27214 | -119.41208 | 27722 ft | 392 kts | 314° |
| 2026-04-22 00:35 | 34.29440 | -119.43133 | 28100 ft | 394 kts | 314° |
| 2026-04-22 00:35 | 34.31679 | -119.45071 | 28482 ft | 397 kts | 314° |
| 2026-04-22 00:35 | 34.33930 | -119.47021 | 28844 ft | 399 kts | 314° |
| 2026-04-22 00:36 | 34.36191 | -119.48980 | 29209 ft | 401 kts | 314° |
| 2026-04-22 00:36 | 34.38464 | -119.50957 | 29569 ft | 403 kts | 314° |
| 2026-04-22 00:36 | 34.40752 | -119.52946 | 29953 ft | 406 kts | 314° |
| 2026-04-22 00:36 | 34.43029 | -119.54969 | 30285 ft | 406 kts | 313° |
| 2026-04-22 00:37 | 34.45274 | -119.57048 | 30588 ft | 406 kts | 312° |
| 2026-04-22 00:37 | 34.47501 | -119.59165 | 30888 ft | 408 kts | 312° |
| 2026-04-22 00:37 | 34.49728 | -119.61303 | 31169 ft | 409 kts | 312° |
| 2026-04-22 00:37 | 34.51966 | -119.63451 | 31408 ft | 411 kts | 312° |
| 2026-04-22 00:38 | 34.54213 | -119.65597 | 31694 ft | 412 kts | 312° |
| 2026-04-22 00:38 | 34.56473 | -119.67739 | 32012 ft | 412 kts | 312° |
| 2026-04-22 00:38 | 34.58729 | -119.69866 | 32088 ft | 406 kts | 312° |
| 2026-04-22 00:38 | 34.60918 | -119.71910 | 32112 ft | 389 kts | 312° |
| 2026-04-22 00:39 | 34.63043 | -119.73897 | 32108 ft | 385 kts | 312° |
| 2026-04-22 00:39 | 34.65185 | -119.75934 | 32097 ft | 397 kts | 311° |
| 2026-04-22 00:39 | 34.67368 | -119.78024 | 32106 ft | 402 kts | 311° |
| 2026-04-22 00:40 | 34.71757 | -119.82212 | 32104 ft | 405 kts | 312° |
| 2026-04-22 00:40 | 34.76200 | -119.86428 | 32125 ft | 404 kts | 312° |
| 2026-04-22 00:41 | 34.80629 | -119.90624 | 32094 ft | 403 kts | 312° |
| 2026-04-22 00:41 | 34.85052 | -119.94835 | 32110 ft | 404 kts | 312° |
| 2026-04-22 00:42 | 34.89468 | -119.99050 | 32117 ft | 404 kts | 312° |
| 2026-04-22 00:42 | 34.93891 | -120.03268 | 32126 ft | 403 kts | 312° |
| 2026-04-22 00:43 | 34.98303 | -120.07491 | 32130 ft | 403 kts | 312° |
| 2026-04-22 00:43 | 35.02711 | -120.11711 | 32143 ft | 403 kts | 312° |
| 2026-04-22 00:44 | 35.07083 | -120.15895 | 31513 ft | 394 kts | 312° |
| 2026-04-22 00:44 | 35.09227 | -120.17945 | 30976 ft | 390 kts | 312° |
| 2026-04-22 00:44 | 35.11356 | -120.19982 | 30464 ft | 386 kts | 312° |
| 2026-04-22 00:44 | 35.13457 | -120.22001 | 29903 ft | 382 kts | 311° |
| 2026-04-22 00:45 | 35.15534 | -120.24002 | 29277 ft | 378 kts | 311° |
| 2026-04-22 00:45 | 35.17591 | -120.25984 | 28695 ft | 375 kts | 312° |
| 2026-04-22 00:45 | 35.19651 | -120.27920 | 28208 ft | 372 kts | 313° |
| 2026-04-22 00:45 | 35.21720 | -120.29820 | 28080 ft | 372 kts | 313° |
| 2026-04-22 00:46 | 35.23801 | -120.31713 | 28109 ft | 374 kts | 313° |
| 2026-04-22 00:46 | 35.27984 | -120.35509 | 28104 ft | 375 kts | 313° |
| 2026-04-22 00:47 | 35.32155 | -120.39309 | 28098 ft | 373 kts | 313° |
| 2026-04-22 00:47 | 35.34192 | -120.41173 | 27677 ft | 368 kts | 313° |
| 2026-04-22 00:47 | 35.36232 | -120.43042 | 27147 ft | 364 kts | 313° |
| 2026-04-22 00:47 | 35.38248 | -120.44896 | 26620 ft | 361 kts | 313° |
| 2026-04-22 00:48 | 35.40274 | -120.46757 | 26099 ft | 358 kts | 313° |
| 2026-04-22 00:48 | 35.42232 | -120.48552 | 25607 ft | 354 kts | 313° |
| 2026-04-22 00:48 | 35.44222 | -120.50383 | 25097 ft | 352 kts | 313° |
| 2026-04-22 00:48 | 35.46141 | -120.52151 | 24669 ft | 349 kts | 313° |
| 2026-04-22 00:49 | 35.48071 | -120.53930 | 24258 ft | 345 kts | 313° |
| 2026-04-22 00:49 | 35.49983 | -120.55694 | 24106 ft | 344 kts | 313° |
| 2026-04-22 00:49 | 35.51896 | -120.57463 | 24123 ft | 345 kts | 313° |
| 2026-04-22 00:49 | 35.53822 | -120.59228 | 24126 ft | 346 kts | 314° |
| 2026-04-22 00:50 | 35.55783 | -120.60954 | 24124 ft | 347 kts | 314° |
| 2026-04-22 00:50 | 35.57768 | -120.62653 | 24128 ft | 348 kts | 315° |
| 2026-04-22 00:50 | 35.59762 | -120.64343 | 24127 ft | 348 kts | 315° |
| 2026-04-22 00:50 | 35.61757 | -120.66033 | 24129 ft | 348 kts | 315° |
| 2026-04-22 00:51 | 35.63747 | -120.67728 | 24178 ft | 348 kts | 314° |
| 2026-04-22 00:51 | 35.65719 | -120.69411 | 24129 ft | 343 kts | 314° |
| 2026-04-22 00:51 | 35.67666 | -120.71081 | 24126 ft | 341 kts | 314° |
| 2026-04-22 00:51 | 35.69606 | -120.72756 | 24129 ft | 341 kts | 314° |
| 2026-04-22 00:52 | 35.71543 | -120.74435 | 24128 ft | 341 kts | 314° |
| 2026-04-22 00:52 | 35.73479 | -120.76115 | 24125 ft | 341 kts | 314° |
| 2026-04-22 00:52 | 35.75416 | -120.77793 | 24123 ft | 339 kts | 314° |
| 2026-04-22 00:52 | 35.77307 | -120.79416 | 24110 ft | 323 kts | 313° |
| 2026-04-22 00:53 | 35.79126 | -120.80974 | 23875 ft | 314 kts | 313° |
| 2026-04-22 00:53 | 35.80894 | -120.82499 | 23689 ft | 307 kts | 312° |
| 2026-04-22 00:53 | 35.82623 | -120.83998 | 23421 ft | 301 kts | 312° |
| 2026-04-22 00:53 | 35.84325 | -120.85480 | 23146 ft | 297 kts | 312° |
| 2026-04-22 00:54 | 35.85995 | -120.86933 | 22790 ft | 292 kts | 312° |
| 2026-04-22 00:54 | 35.87642 | -120.88365 | 22400 ft | 288 kts | 312° |
| 2026-04-22 00:54 | 35.89267 | -120.89780 | 22011 ft | 284 kts | 312° |
| 2026-04-22 00:54 | 35.90873 | -120.91181 | 21641 ft | 281 kts | 312° |
| 2026-04-22 00:55 | 35.92463 | -120.92565 | 21276 ft | 278 kts | 312° |
| 2026-04-22 00:55 | 35.94036 | -120.93934 | 20915 ft | 275 kts | 312° |
| 2026-04-22 00:55 | 35.97138 | -120.96638 | 20195 ft | 271 kts | 312° |
| 2026-04-22 00:56 | 35.98673 | -120.97978 | 19881 ft | 270 kts | 313° |
| 2026-04-22 00:56 | 36.00182 | -120.99298 | 19509 ft | 269 kts | 313° |
| 2026-04-22 00:56 | 36.01726 | -121.00648 | 19140 ft | 268 kts | 313° |
| 2026-04-22 00:56 | 36.03240 | -121.01972 | 18797 ft | 266 kts | 314° |
| 2026-04-22 00:57 | 36.04755 | -121.03294 | 18451 ft | 266 kts | 314° |
| 2026-04-22 00:57 | 36.06261 | -121.04607 | 18079 ft | 265 kts | 314° |
| 2026-04-22 00:57 | 36.07769 | -121.05923 | 17676 ft | 266 kts | 314° |
| 2026-04-22 00:57 | 36.09276 | -121.07240 | 17304 ft | 265 kts | 314° |
| 2026-04-22 00:58 | 36.10779 | -121.08555 | 16993 ft | 265 kts | 315° |
| 2026-04-22 00:58 | 36.12283 | -121.09870 | 16667 ft | 265 kts | 315° |
| 2026-04-22 00:58 | 36.13791 | -121.11189 | 16340 ft | 266 kts | 315° |
| 2026-04-22 00:58 | 36.15303 | -121.12513 | 16022 ft | 267 kts | 316° |
| 2026-04-22 00:59 | 36.16831 | -121.13857 | 15678 ft | 271 kts | 317° |
| 2026-04-22 00:59 | 36.18376 | -121.15217 | 15343 ft | 273 kts | 317° |
| 2026-04-22 00:59 | 36.19906 | -121.16559 | 15015 ft | 274 kts | 317° |
| 2026-04-22 00:59 | 36.21462 | -121.17923 | 14677 ft | 275 kts | 318° |
| 2026-04-22 01:00 | 36.23023 | -121.19293 | 14352 ft | 275 kts | 318° |
| 2026-04-22 01:00 | 36.24586 | -121.20664 | 14012 ft | 275 kts | 318° |
| 2026-04-22 01:00 | 36.26149 | -121.22036 | 13646 ft | 276 kts | 318° |
| 2026-04-22 01:00 | 36.27718 | -121.23415 | 13296 ft | 276 kts | 318° |
| 2026-04-22 01:01 | 36.29275 | -121.24785 | 12951 ft | 275 kts | 319° |
| 2026-04-22 01:01 | 36.30831 | -121.26156 | 12602 ft | 274 kts | 319° |
| 2026-04-22 01:01 | 36.32385 | -121.27526 | 12240 ft | 274 kts | 319° |
| 2026-04-22 01:01 | 36.33936 | -121.28897 | 11889 ft | 274 kts | 319° |
| 2026-04-22 01:02 | 36.34987 | -121.29825 | 11643 ft | 274 kts | 319° |
| 2026-04-22 01:02 | 36.36539 | -121.31195 | 11308 ft | 273 kts | 319° |
| 2026-04-22 01:02 | 36.38084 | -121.32557 | 10952 ft | 273 kts | 320° |
| 2026-04-22 01:02 | 36.39632 | -121.33922 | 10595 ft | 272 kts | 320° |
| 2026-04-22 01:03 | 36.41167 | -121.35274 | 10342 ft | 267 kts | 320° |
| 2026-04-22 01:03 | 36.42564 | -121.36666 | 10217 ft | 254 kts | 310° |
| 2026-04-22 01:03 | 36.43771 | -121.38219 | 10018 ft | 247 kts | 309° |
| 2026-04-22 01:03 | 36.44957 | -121.39752 | 9715 ft | 245 kts | 309° |
| 2026-04-22 01:04 | 36.46133 | -121.41276 | 9367 ft | 244 kts | 309° |
| 2026-04-22 01:04 | 36.47303 | -121.42793 | 8987 ft | 241 kts | 309° |
| 2026-04-22 01:04 | 36.48459 | -121.44292 | 8422 ft | 239 kts | 309° |
| 2026-04-22 01:04 | 36.49605 | -121.45779 | 7858 ft | 238 kts | 309° |
| 2026-04-22 01:05 | 36.50744 | -121.47256 | 7371 ft | 234 kts | 309° |
| 2026-04-22 01:05 | 36.51860 | -121.48700 | 7060 ft | 230 kts | 309° |
| 2026-04-22 01:05 | 36.52966 | -121.50135 | 6733 ft | 229 kts | 309° |
| 2026-04-22 01:05 | 36.54068 | -121.51566 | 6394 ft | 229 kts | 309° |
| 2026-04-22 01:06 | 36.55170 | -121.52999 | 6057 ft | 229 kts | 309° |
| 2026-04-22 01:06 | 36.56273 | -121.54434 | 5704 ft | 230 kts | 309° |
| 2026-04-22 01:06 | 36.57227 | -121.56009 | 5361 ft | 227 kts | 291° |
| 2026-04-22 01:06 | 36.57580 | -121.57889 | 5030 ft | 223 kts | 268° |
| 2026-04-22 01:07 | 36.57298 | -121.59765 | 4693 ft | 221 kts | 249° |
| 2026-04-22 01:07 | 36.56782 | -121.61511 | 4357 ft | 208 kts | 249° |
| 2026-04-22 01:07 | 36.56435 | -121.63196 | 4055 ft | 197 kts | 265° |
| 2026-04-22 01:07 | 36.56519 | -121.64867 | 3731 ft | 190 kts | 274° |
| 2026-04-22 01:08 | 36.56662 | -121.66445 | 3491 ft | 179 kts | 274° |
| 2026-04-22 01:08 | 36.56793 | -121.67951 | 3176 ft | 171 kts | 275° |
| 2026-04-22 01:08 | 36.56916 | -121.69393 | 2892 ft | 164 kts | 275° |
| 2026-04-22 01:08 | 36.57033 | -121.70774 | 2625 ft | 157 kts | 275° |
| 2026-04-22 01:09 | 36.57144 | -121.72095 | 2370 ft | 149 kts | 277° |
| 2026-04-22 01:09 | 36.57248 | -121.73336 | 2136 ft | 139 kts | 277° |
| 2026-04-22 01:09 | 36.57347 | -121.74511 | 1919 ft | 135 kts | 277° |
| 2026-04-22 01:09 | 36.57445 | -121.75668 | 1750 ft | 132 kts | 275° |
| 2026-04-22 01:10 | 36.57542 | -121.76802 | 1549 ft | 131 kts | 275° |
| 2026-04-22 01:10 | 36.57639 | -121.77929 | 1355 ft | 131 kts | 274° |
| 2026-04-22 01:10 | 36.57733 | -121.79043 | 1151 ft | 129 kts | 273° |
| 2026-04-22 01:10 | 36.57825 | -121.80155 | 918 ft | 130 kts | 272° |
| 2026-04-22 01:11 | 36.57929 | -121.81284 | 720 ft | 132 kts | 274° |
| 2026-04-22 01:11 | 36.58079 | -121.82421 | 524 ft | 135 kts | 279° |
| 2026-04-22 01:11 | 36.58391 | -121.83531 | 275 ft | 134 kts | 288° |
| 2026-04-22 01:11 | 36.58676 | -121.84426 | 221 ft | 84 kts | 295° |
| 2026-04-22 01:12 | 36.58869 | -121.84956 | 202 ft | 47 kts | 294° |
| 2026-04-22 01:12 | 36.58970 | -121.85232 | 196 ft | 28 kts | 295° |
| 2026-04-22 01:12 | 36.59045 | -121.85466 | 173 ft | 21 kts | 290° |
| 2026-04-22 01:12 | 36.59013 | -121.85586 | 171 ft | 15 kts | 183° |
| 2026-04-22 01:13 | 36.58973 | -121.85539 | 174 ft | 0 kts | 119° |
| 2026-04-22 01:14 | 36.58972 | -121.85538 | 175 ft | 0 kts | 118° |
| 2026-04-22 01:14 | 36.58971 | -121.85536 | 175 ft | 1 kts | 117° |
| 2026-04-22 01:14 | 36.58959 | -121.85499 | 176 ft | 12 kts | 111° |
| 2026-04-22 01:14 | 36.58930 | -121.85408 | 180 ft | 11 kts | 113° |
| 2026-04-22 01:15 | 36.58887 | -121.85279 | 194 ft | 16 kts | 112° |
| 2026-04-22 01:15 | 36.58851 | -121.85156 | 205 ft | 14 kts | 108° |
| 2026-04-22 01:15 | 36.58823 | -121.85050 | 208 ft | 12 kts | 108° |
| 2026-04-22 01:15 | 36.58783 | -121.84980 | 211 ft | 9 kts | 141° |
| 2026-04-22 01:16 | 36.58772 | -121.84972 | 207 ft | 0 kts | 148° |